PWSweather.com
Personal Weather Stations
Station Observations
HARSTAD1
Kanebogen, HarstadNO 9411

KanebogenHarstadNO 9411

Lat: 68.7731054, Lon: 16.5496315

Elevation: 213

Station Type: Netatmo Weather Station

http://oddne.net/met/

Latest ConditionsUpdated 7:59:36 AM GMT+01:01 Saturday, Jan 18, 2020
Currently Today's Max Today's Min Today's Average
Temperature 25.7°F-3.5°C 28.8°F-1.8°C 25.7°F-3.5°C 27.2°F-2.7°C
Dew Point 21.7°F-5.7°C 23.4°F-4.8°C 21.6°F-5.8°C 22.4°F-5.3°C
Winds 3.7 mph SW6.0 kmh SW 5.0 mph -8.0 kmh - - 3.8 mph 6.1 kmh
Wind Gusts 5.6 mph9.0 kmh 11.2 mph18.0 kmh - -
Humidity 85% 85% 80% 82%
Pressure 30.03 in1016.9 mb 30.13 in1020.3 mb 30.03 in1016.9 mb -
Hour Temp Dew Point Humidity Winds Wind Gusts Pressure Precip Precip Rate Daily Precip Total
07:59 AM 25.7°F-3.5°C 21.7°F-5.7°C 85% 3.7 mph SW6.0 kmh SW 5.6 mph9.0 kmh 30.03 in1016.9 mb 0.00 in0.0 mm 0.00 in0.0 mm 0.00 in0.0 mm
07:49 AM 25.7°F-3.5°C 21.6°F-5.8°C 84% 3.1 mph SW5.0 kmh SW 5.6 mph9.0 kmh 30.03 in1016.9 mb 0.00 in0.0 mm 0.00 in0.0 mm 0.00 in0.0 mm
07:39 AM 25.9°F-3.4°C 21.7°F-5.7°C 84% 3.7 mph SW6.0 kmh SW 6.2 mph10.0 kmh 30.03 in1016.9 mb 0.00 in0.0 mm 0.00 in0.0 mm 0.00 in0.0 mm
07:29 AM 25.9°F-3.4°C 21.7°F-5.7°C 84% 3.7 mph SW6.0 kmh SW 6.2 mph10.0 kmh 30.03 in1016.9 mb 0.00 in0.0 mm 0.00 in0.0 mm 0.00 in0.0 mm
07:19 AM 25.9°F-3.4°C 21.7°F-5.7°C 84% 3.7 mph SW6.0 kmh SW 5.6 mph9.0 kmh 30.03 in1016.9 mb 0.00 in0.0 mm 0.00 in0.0 mm 0.00 in0.0 mm
07:09 AM 26.1°F-3.3°C 21.7°F-5.7°C 84% 3.1 mph SW5.0 kmh SW 5.6 mph9.0 kmh 30.03 in1016.9 mb 0.00 in0.0 mm 0.00 in0.0 mm 0.00 in0.0 mm
06:59 AM 26.1°F-3.3°C 22.1°F-5.5°C 85% 2.5 mph SW4.0 kmh SW 4.4 mph7.1 kmh 30.04 in1017.3 mb 0.00 in0.0 mm 0.00 in0.0 mm 0.00 in0.0 mm
06:49 AM 25.9°F-3.4°C 21.9°F-5.6°C 85% 4.4 mph WSW7.1 kmh WSW 6.8 mph10.9 kmh 30.04 in1017.3 mb 0.00 in0.0 mm 0.00 in0.0 mm 0.00 in0.0 mm
06:39 AM 26.1°F-3.3°C 22.1°F-5.5°C 85% 5.0 mph W8.0 kmh W 6.8 mph10.9 kmh 30.04 in1017.3 mb 0.00 in0.0 mm 0.00 in0.0 mm 0.00 in0.0 mm
06:29 AM 26.2°F-3.2°C 21.9°F-5.6°C 84% 4.4 mph WSW7.1 kmh WSW 6.2 mph10.0 kmh 30.04 in1017.3 mb 0.00 in0.0 mm 0.00 in0.0 mm 0.00 in0.0 mm
06:19 AM 26.4°F-3.1°C 22.1°F-5.5°C 84% 4.4 mph WSW7.1 kmh WSW 8.1 mph13.0 kmh 30.04 in1017.3 mb 0.00 in0.0 mm 0.00 in0.0 mm 0.00 in0.0 mm
06:09 AM 26.4°F-3.1°C 22.1°F-5.5°C 84% 4.4 mph WSW7.1 kmh WSW 8.1 mph13.0 kmh 30.04 in1017.3 mb 0.00 in0.0 mm 0.00 in0.0 mm 0.00 in0.0 mm
05:59 AM 26.4°F-3.1°C 22.1°F-5.5°C 84% 4.4 mph WSW7.1 kmh WSW 8.1 mph13.0 kmh 30.05 in1017.6 mb 0.00 in0.0 mm 0.00 in0.0 mm 0.00 in0.0 mm
05:49 AM 26.2°F-3.2°C 21.7°F-5.7°C 83% 5.0 mph WSW8.0 kmh WSW 8.1 mph13.0 kmh 30.05 in1017.6 mb 0.00 in0.0 mm 0.00 in0.0 mm 0.00 in0.0 mm
05:39 AM 26.2°F-3.2°C 21.9°F-5.6°C 84% 5.0 mph WSW8.0 kmh WSW 8.7 mph14.0 kmh 30.05 in1017.6 mb 0.00 in0.0 mm 0.00 in0.0 mm 0.00 in0.0 mm
05:28 AM 26.2°F-3.2°C 21.7°F-5.7°C 83% 5.0 mph WSW8.0 kmh WSW 8.1 mph13.0 kmh 30.06 in1017.9 mb 0.00 in0.0 mm 0.00 in0.0 mm 0.00 in0.0 mm
05:19 AM 26.4°F-3.1°C 21.9°F-5.6°C 83% 3.7 mph WSW6.0 kmh WSW 6.8 mph10.9 kmh 30.06 in1017.9 mb 0.00 in0.0 mm 0.00 in0.0 mm 0.00 in0.0 mm
05:09 AM 26.4°F-3.1°C 21.9°F-5.6°C 83% 3.7 mph WSW6.0 kmh WSW 6.8 mph10.9 kmh 30.06 in1017.9 mb 0.00 in0.0 mm 0.00 in0.0 mm 0.00 in0.0 mm
04:59 AM 26.4°F-3.1°C 21.9°F-5.6°C 83% 4.4 mph WSW7.1 kmh WSW 7.5 mph12.1 kmh 30.06 in1017.9 mb 0.00 in0.0 mm 0.00 in0.0 mm 0.00 in0.0 mm
04:49 AM 26.6°F-3.0°C 22.1°F-5.5°C 83% 3.7 mph SW6.0 kmh SW 6.8 mph10.9 kmh 30.07 in1018.3 mb 0.00 in0.0 mm 0.00 in0.0 mm 0.00 in0.0 mm
04:39 AM 26.6°F-3.0°C 22.1°F-5.5°C 83% 3.7 mph SW6.0 kmh SW 6.8 mph10.9 kmh 30.07 in1018.3 mb 0.00 in0.0 mm 0.00 in0.0 mm 0.00 in0.0 mm
04:29 AM 26.8°F-2.9°C 22.3°F-5.4°C 83% 3.7 mph SW6.0 kmh SW 6.2 mph10.0 kmh 30.07 in1018.3 mb 0.00 in0.0 mm 0.00 in0.0 mm 0.00 in0.0 mm
04:19 AM 27.0°F-2.8°C 22.1°F-5.5°C 82% 3.1 mph SW5.0 kmh SW 6.2 mph10.0 kmh 30.08 in1018.6 mb 0.00 in0.0 mm 0.00 in0.0 mm 0.00 in0.0 mm
04:09 AM 27.7°F-2.4°C 22.5°F-5.3°C 81% 5.0 mph WSW8.0 kmh WSW 8.1 mph13.0 kmh 30.08 in1018.6 mb 0.00 in0.0 mm 0.00 in0.0 mm 0.00 in0.0 mm
03:58 AM 27.9°F-2.3°C 22.6°F-5.2°C 81% 4.4 mph WSW7.1 kmh WSW 6.8 mph10.9 kmh 30.08 in1018.6 mb 0.00 in0.0 mm 0.00 in0.0 mm 0.00 in0.0 mm
03:49 AM 27.9°F-2.3°C 22.6°F-5.2°C 81% 4.4 mph WSW7.1 kmh WSW 6.8 mph10.9 kmh 30.08 in1018.6 mb 0.00 in0.0 mm 0.00 in0.0 mm 0.00 in0.0 mm
03:39 AM 28.2°F-2.1°C 23.0°F-5.0°C 81% 3.1 mph SW5.0 kmh SW 5.6 mph9.0 kmh 30.09 in1019.0 mb 0.00 in0.0 mm 0.00 in0.0 mm 0.00 in0.0 mm
03:29 AM 28.2°F-2.1°C 23.4°F-4.8°C 82% 3.1 mph S5.0 kmh S 8.7 mph14.0 kmh 30.09 in1019.0 mb 0.00 in0.0 mm 0.00 in0.0 mm 0.00 in0.0 mm
03:19 AM 27.7°F-2.4°C 22.5°F-5.3°C 81% 3.1 mph SW5.0 kmh SW 5.6 mph9.0 kmh 30.08 in1018.6 mb 0.00 in0.0 mm 0.00 in0.0 mm 0.00 in0.0 mm
03:09 AM 27.9°F-2.3°C 22.5°F-5.3°C 80% 3.7 mph SW6.0 kmh SW 6.2 mph10.0 kmh 30.09 in1019.0 mb 0.00 in0.0 mm 0.00 in0.0 mm 0.00 in0.0 mm
02:59 AM 28.0°F-2.2°C 22.6°F-5.2°C 80% 3.7 mph SW6.0 kmh SW 11.2 mph18.0 kmh 30.09 in1019.0 mb 0.00 in0.0 mm 0.00 in0.0 mm 0.00 in0.0 mm
02:49 AM 28.4°F-2.0°C 23.0°F-5.0°C 80% 3.7 mph SW6.0 kmh SW 7.5 mph12.1 kmh 30.09 in1019.0 mb 0.00 in0.0 mm 0.00 in0.0 mm 0.00 in0.0 mm
02:39 AM 28.0°F-2.2°C 23.2°F-4.9°C 82% 2.5 mph SW4.0 kmh SW 5.6 mph9.0 kmh 30.09 in1019.0 mb 0.00 in0.0 mm 0.00 in0.0 mm 0.00 in0.0 mm
02:29 AM 27.5°F-2.5°C 22.6°F-5.2°C 82% 3.7 mph SW6.0 kmh SW 6.8 mph10.9 kmh 30.10 in1019.3 mb 0.00 in0.0 mm 0.00 in0.0 mm 0.00 in0.0 mm
02:19 AM 27.5°F-2.5°C 22.6°F-5.2°C 82% 3.7 mph SW6.0 kmh SW 6.8 mph10.9 kmh 30.10 in1019.3 mb 0.00 in0.0 mm 0.00 in0.0 mm 0.00 in0.0 mm
02:09 AM 27.7°F-2.4°C 22.8°F-5.1°C 82% 3.7 mph SW6.0 kmh SW 6.8 mph10.9 kmh 30.11 in1019.6 mb 0.00 in0.0 mm 0.00 in0.0 mm 0.00 in0.0 mm
01:59 AM 27.9°F-2.3°C 22.6°F-5.2°C 81% 3.1 mph WSW5.0 kmh WSW 5.6 mph9.0 kmh 30.11 in1019.6 mb 0.00 in0.0 mm 0.00 in0.0 mm 0.00 in0.0 mm
01:49 AM 28.0°F-2.2°C 22.8°F-5.1°C 81% 3.1 mph SW5.0 kmh SW 4.4 mph7.1 kmh 30.11 in1019.6 mb 0.00 in0.0 mm 0.00 in0.0 mm 0.00 in0.0 mm
01:39 AM 27.9°F-2.3°C 22.6°F-5.2°C 81% 2.5 mph SW4.0 kmh SW 5.6 mph9.0 kmh 30.11 in1019.6 mb 0.00 in0.0 mm 0.00 in0.0 mm 0.00 in0.0 mm
01:29 AM 28.0°F-2.2°C 22.6°F-5.2°C 80% 3.7 mph SW6.0 kmh SW 6.8 mph10.9 kmh 30.12 in1020.0 mb 0.00 in0.0 mm 0.00 in0.0 mm 0.00 in0.0 mm
01:19 AM 28.2°F-2.1°C 22.8°F-5.1°C 80% 3.7 mph SW6.0 kmh SW 7.5 mph12.1 kmh 30.12 in1020.0 mb 0.00 in0.0 mm 0.00 in0.0 mm 0.00 in0.0 mm
01:09 AM 28.4°F-2.0°C 23.0°F-5.0°C 80% 3.1 mph SW5.0 kmh SW 5.6 mph9.0 kmh 30.12 in1020.0 mb 0.00 in0.0 mm 0.00 in0.0 mm 0.00 in0.0 mm
12:59 AM 28.4°F-2.0°C 23.0°F-5.0°C 80% 3.7 mph SW6.0 kmh SW 8.7 mph14.0 kmh 30.12 in1020.0 mb 0.00 in0.0 mm 0.00 in0.0 mm 0.00 in0.0 mm
12:49 AM 28.4°F-2.0°C 23.0°F-5.0°C 80% 3.7 mph SW6.0 kmh SW 8.1 mph13.0 kmh 30.12 in1020.0 mb 0.00 in0.0 mm 0.00 in0.0 mm 0.00 in0.0 mm
12:39 AM 28.4°F-2.0°C 23.0°F-5.0°C 80% 3.7 mph SW6.0 kmh SW 6.8 mph10.9 kmh 30.12 in1020.0 mb 0.00 in0.0 mm 0.00 in0.0 mm 0.00 in0.0 mm
12:29 AM 28.2°F-2.1°C 23.0°F-5.0°C 81% 3.7 mph SW6.0 kmh SW 8.7 mph14.0 kmh 30.13 in1020.3 mb 0.00 in0.0 mm 0.00 in0.0 mm 0.00 in0.0 mm
12:19 AM 28.4°F-2.0°C 23.0°F-5.0°C 80% 3.1 mph SW5.0 kmh SW 6.8 mph10.9 kmh 30.13 in1020.3 mb 0.00 in0.0 mm 0.00 in0.0 mm 0.00 in0.0 mm
12:09 AM 28.8°F-1.8°C 23.4°F-4.8°C 80% 3.7 mph SW6.0 kmh SW 5.6 mph9.0 kmh 30.13 in1020.3 mb 0.00 in0.0 mm 0.00 in0.0 mm 0.00 in0.0 mm